createdAt,value
2023-04-25T00:02:40.776Z,95217.63
2023-04-25T00:07:42.382Z,95206.06
2023-04-25T00:12:43.856Z,95204.53
2023-04-25T00:17:45.462Z,95197.78
2023-04-25T00:22:46.968Z,95197.09
2023-04-25T00:27:48.490Z,95185.00
2023-04-25T00:32:50.095Z,95174.41
2023-04-25T00:37:51.605Z,95175.09
2023-04-25T00:42:53.965Z,95175.78
2023-04-25T00:47:56.059Z,95164.53
2023-04-25T00:52:57.614Z,95160.38
2023-04-25T00:57:59.252Z,95163.19
2023-04-25T01:03:01.402Z,95171.94
2023-04-25T01:08:03.409Z,95163.00
2023-04-25T01:13:05.187Z,95165.50
2023-04-25T01:18:07.064Z,95162.50
2023-04-25T01:23:09.129Z,95155.72
2023-04-25T01:28:10.891Z,95152.94
2023-04-25T01:33:14.885Z,95148.84
2023-04-25T01:38:16.708Z,95144.34
2023-04-25T01:43:18.309Z,95147.16
2023-04-25T01:48:20.582Z,95144.66
2023-04-25T01:53:22.695Z,95142.97
2023-04-25T01:58:24.278Z,95142.47
2023-04-25T02:04:04.203Z,95149.75
2023-04-25T02:09:10.665Z,95148.28
2023-04-25T02:14:17.659Z,95157.88
2023-04-25T02:19:32.802Z,95151.03
2023-04-25T02:24:34.331Z,95160.25
2023-04-25T02:29:35.934Z,95163.09
2023-04-25T02:34:37.714Z,95153.38
2023-04-25T02:39:39.122Z,95145.50
2023-04-25T02:44:40.572Z,95144.97
2023-04-25T02:49:42.047Z,95146.69
2023-04-25T02:54:44.368Z,95144.38
2023-04-25T02:59:45.921Z,95138.63
2023-04-25T03:04:47.588Z,95127.69
2023-04-25T03:09:49.421Z,95126.41
2023-04-25T03:14:51.022Z,95130.63
2023-04-25T03:19:52.730Z,95116.56
2023-04-25T03:24:54.212Z,95117.19
2023-04-25T03:29:55.615Z,95115.19
2023-04-25T03:34:57.279Z,95118.63
2023-04-25T03:40:01.044Z,95110.06
2023-04-25T03:45:20.810Z,95121.53
2023-04-25T03:50:22.506Z,95109.06
2023-04-25T03:55:24.145Z,95108.66
2023-04-25T04:00:26.448Z,95102.72
2023-04-25T04:05:28.725Z,95104.78
2023-04-25T04:10:31.831Z,95095.00
2023-04-25T04:15:33.625Z,95104.44
2023-04-25T04:20:35.210Z,95108.75
2023-04-25T04:25:38.415Z,95111.78
2023-04-25T04:30:51.399Z,95104.25
2023-04-25T04:35:53.793Z,95100.47
2023-04-25T04:40:55.829Z,95092.81
2023-04-25T04:46:07.926Z,95100.84
2023-04-25T04:51:27.698Z,95113.06
2023-04-25T04:56:30.081Z,95108.84
2023-04-25T05:01:54.129Z,95106.50
2023-04-25T05:07:11.457Z,95100.38
2023-04-25T05:12:37.317Z,95102.00
2023-04-25T05:17:57.688Z,95105.63
2023-04-25T05:23:20.917Z,95098.28
2023-04-25T05:28:41.200Z,95096.63
2023-04-25T05:33:54.559Z,95103.69
2023-04-25T05:38:57.450Z,95093.47
2023-04-25T05:44:17.330Z,95096.28
2023-04-25T05:49:38.599Z,95093.13
2023-04-25T05:55:00.325Z,95096.13
2023-04-25T06:00:02.402Z,95092.16
2023-04-25T06:05:24.324Z,95088.84
2023-04-25T06:10:26.260Z,95098.94
2023-04-25T06:15:29.031Z,95097.97
2023-04-25T06:20:31.143Z,95100.31
2023-04-25T06:25:34.904Z,95095.50
2023-04-25T06:30:37.712Z,95090.72
2023-04-25T06:35:43.902Z,95075.69
2023-04-25T06:40:47.860Z,95079.84
2023-04-25T06:45:49.711Z,95080.34
2023-04-25T06:50:51.787Z,95076.22
2023-04-25T06:55:54.031Z,95086.97
2023-04-25T07:00:57.897Z,95083.31
2023-04-25T07:06:01.461Z,95102.19
2023-04-25T07:11:04.522Z,95120.97
2023-04-25T07:16:06.328Z,95139.91
2023-04-25T07:21:09.679Z,95142.38
2023-04-25T07:26:12.400Z,95142.31
2023-04-25T07:31:27.692Z,95139.88
2023-04-25T07:36:29.221Z,95151.88
2023-04-25T07:41:30.676Z,95158.81
2023-04-25T07:46:32.431Z,95145.25
2023-04-25T07:51:34.206Z,95143.38
2023-04-25T07:56:51.480Z,95158.88
2023-04-25T08:01:54.165Z,95171.09
2023-04-25T08:06:56.364Z,95174.34
2023-04-25T08:12:02.351Z,95177.66
2023-04-25T08:17:07.235Z,95181.34
2023-04-25T08:22:14.660Z,95192.75
2023-04-25T08:27:27.119Z,95199.47
2023-04-25T08:32:30.779Z,95188.38
2023-04-25T08:37:52.795Z,95198.66
2023-04-25T08:42:56.021Z,95210.22
2023-04-25T08:47:59.691Z,95218.56
2023-04-25T08:53:05.476Z,95225.41
2023-04-25T08:58:08.576Z,95226.34
2023-04-25T09:03:11.595Z,95226.16
2023-04-25T09:08:13.745Z,95239.19
2023-04-25T09:13:26.142Z,95240.03
2023-04-25T09:18:50.325Z,95246.31
2023-04-25T09:23:53.313Z,95258.84
2023-04-25T09:29:08.634Z,95261.47
2023-04-25T09:34:13.736Z,95266.69
2023-04-25T09:39:20.971Z,95271.59
2023-04-25T09:44:33.517Z,95276.75
2023-04-25T09:49:35.341Z,95287.97
2023-04-25T09:54:45.451Z,95293.94
2023-04-25T09:59:56.595Z,95294.69
2023-04-25T10:05:01.719Z,95299.19
2023-04-25T10:10:09.905Z,95287.75
2023-04-25T10:15:13.013Z,95287.94
2023-04-25T10:20:15.050Z,95288.53
2023-04-25T10:25:16.826Z,95290.50
2023-04-25T10:30:19.254Z,95290.56
2023-04-25T10:35:26.420Z,95284.94
2023-04-25T10:40:28.325Z,95285.56
2023-04-25T10:45:29.783Z,95301.97
2023-04-25T10:50:39.013Z,95299.94
2023-04-25T10:55:52.819Z,95296.84
2023-04-25T11:00:57.553Z,95303.06
2023-04-25T11:06:02.307Z,95301.56
2023-04-25T11:11:03.955Z,95298.91
2023-04-25T11:21:31.602Z,95302.94
2023-04-25T11:26:33.075Z,95299.13
2023-04-25T11:31:34.959Z,95308.34
2023-04-25T11:36:39.222Z,95295.53
2023-04-25T11:41:42.840Z,95297.19
2023-04-25T11:46:47.015Z,95296.50
2023-04-25T11:51:49.567Z,95293.38
2023-04-25T11:56:51.105Z,95305.97
2023-04-25T12:01:52.861Z,95286.72
2023-04-25T12:06:55.920Z,95300.69
2023-04-25T12:11:59.255Z,95304.16
2023-04-25T12:17:02.944Z,95285.28
2023-04-25T12:22:19.969Z,95293.63
2023-04-25T12:27:21.479Z,95298.28
2023-04-25T12:32:23.446Z,95312.66
2023-04-25T12:37:25.056Z,95325.97
2023-04-25T12:42:26.459Z,95327.66
2023-04-25T12:47:28.001Z,95314.09
2023-04-25T12:52:29.460Z,95328.53
2023-04-25T12:57:30.892Z,95331.16
2023-04-25T13:02:32.426Z,95340.78
2023-04-25T13:07:35.435Z,95354.88
2023-04-25T13:12:37.474Z,95358.50
2023-04-25T13:17:39.380Z,95351.56
2023-04-25T13:22:41.050Z,95365.13
2023-04-25T13:27:42.763Z,95372.59
2023-04-25T13:32:44.543Z,95375.75
2023-04-25T13:37:46.041Z,95380.50
2023-04-25T13:42:47.491Z,95382.16
2023-04-25T13:47:49.155Z,95375.34
2023-04-25T13:52:50.706Z,95379.53
2023-04-25T13:57:52.168Z,95382.88
2023-04-25T14:02:53.716Z,95374.25
2023-04-25T14:07:55.240Z,95371.59
2023-04-25T14:12:56.721Z,95365.47
2023-04-25T14:17:58.255Z,95370.09
2023-04-25T14:22:59.745Z,95384.69
2023-04-25T14:28:01.212Z,95381.38
2023-04-25T14:33:02.793Z,95378.38
2023-04-25T14:38:04.259Z,95385.34
2023-04-25T14:43:05.723Z,95384.38
2023-04-25T14:48:07.366Z,95381.72
2023-04-25T14:53:08.924Z,95389.00
2023-04-25T14:58:10.338Z,95404.94
2023-04-25T15:03:11.987Z,95404.72
2023-04-25T15:08:13.636Z,95411.16
2023-04-25T15:13:15.656Z,95416.09
2023-04-25T15:18:17.915Z,95427.81
2023-04-25T15:23:20.350Z,95415.94
2023-04-25T15:28:21.855Z,95422.50
2023-04-25T15:33:23.400Z,95432.13
2023-04-25T15:38:25.009Z,95431.81
2023-04-25T15:43:26.496Z,95435.31
2023-04-25T15:48:27.956Z,95429.03
2023-04-25T15:53:29.473Z,95438.72
2023-04-25T15:58:30.943Z,95432.56
2023-04-25T16:03:49.430Z,95424.16
2023-04-25T16:08:51.250Z,95419.59
2023-04-25T16:13:52.959Z,95421.38
2023-04-25T16:18:54.669Z,95424.38
2023-04-25T16:23:56.147Z,95426.94
2023-04-25T16:28:57.626Z,95432.97
2023-04-25T16:33:59.146Z,95453.16
2023-04-25T16:39:00.626Z,95475.50
2023-04-25T16:44:02.047Z,95480.00
2023-04-25T16:49:03.547Z,95478.72
2023-04-25T16:54:04.992Z,95485.22
2023-04-25T16:59:06.399Z,95479.13
2023-04-25T17:04:08.029Z,95481.53
2023-04-25T17:09:09.650Z,95485.38
2023-04-25T17:14:11.106Z,95487.44
2023-04-25T17:19:12.508Z,95499.13
2023-04-25T17:24:14.006Z,95502.06
2023-04-25T17:29:15.531Z,95504.78
2023-04-25T17:34:17.004Z,95514.38
2023-04-25T17:39:18.567Z,95515.00
2023-04-25T17:44:20.721Z,95511.63
2023-04-25T17:49:22.178Z,95507.56
2023-04-25T17:54:23.908Z,95525.94
2023-04-25T17:59:25.413Z,95522.84
2023-04-25T18:04:30.562Z,95524.25
2023-04-25T18:09:32.913Z,95540.63
2023-04-25T18:14:34.454Z,95561.47
2023-04-25T18:19:35.958Z,95568.81
2023-04-25T18:24:37.378Z,95556.31
2023-04-25T18:29:38.873Z,95568.34
2023-04-25T18:34:40.333Z,95581.41
2023-04-25T18:39:41.788Z,95586.28
2023-04-25T18:44:43.285Z,95593.25
2023-04-25T18:49:45.161Z,95600.50
2023-04-25T18:54:46.654Z,95603.16
2023-04-25T18:59:48.104Z,95622.59
2023-04-25T19:04:49.620Z,95624.84
2023-04-25T19:09:51.263Z,95620.59
2023-04-25T19:14:52.741Z,95627.22
2023-04-25T19:19:54.230Z,95631.41
2023-04-25T19:25:03.091Z,95638.28
2023-04-25T19:30:11.837Z,95650.28
2023-04-25T19:35:13.361Z,95646.41
2023-04-25T19:40:16.469Z,95646.38
2023-04-25T19:45:18.145Z,95646.63
2023-04-25T19:50:19.626Z,95636.22
2023-04-25T19:55:21.161Z,95647.16
2023-04-25T20:00:22.636Z,95649.97
2023-04-25T20:05:24.152Z,95641.16
2023-04-25T20:10:25.605Z,95653.13
2023-04-25T20:15:27.036Z,95645.25
2023-04-25T20:20:28.527Z,95656.50
2023-04-25T20:25:29.976Z,95660.84
2023-04-25T20:30:31.774Z,95660.28
2023-04-25T20:35:33.282Z,95657.63
2023-04-25T20:40:34.760Z,95663.63
2023-04-25T20:45:36.275Z,95666.09
2023-04-25T20:50:37.892Z,95668.31
2023-04-25T20:55:39.347Z,95672.50
2023-04-25T21:00:40.769Z,95671.13
2023-04-25T21:05:42.203Z,95673.03
2023-04-25T21:10:43.706Z,95680.81
2023-04-25T21:15:45.230Z,95682.31
2023-04-25T21:20:46.845Z,95686.63
2023-04-25T21:25:48.293Z,95673.44
2023-04-25T21:30:50.373Z,95679.16
2023-04-25T21:35:51.957Z,95680.03
2023-04-25T21:40:53.526Z,95679.31
2023-04-25T21:46:19.083Z,95682.09
2023-04-25T21:51:16.609Z,95690.28
2023-04-25T21:56:18.106Z,95693.47
2023-04-25T22:01:19.604Z,95685.84
2023-04-25T22:06:21.076Z,95680.44
2023-04-25T22:11:22.560Z,95690.56
2023-04-25T22:16:24.151Z,95690.81
2023-04-25T22:21:26.889Z,95695.53
2023-04-25T22:26:28.365Z,95687.34
2023-04-25T22:31:30.052Z,95696.28
2023-04-25T22:36:31.557Z,95693.38
2023-04-25T22:41:33.051Z,95708.63
2023-04-25T22:46:34.561Z,95702.38
2023-04-25T22:51:36.054Z,95706.53
2023-04-25T22:56:37.516Z,95702.22
2023-04-25T23:01:39.036Z,95693.56
2023-04-25T23:06:40.481Z,95700.59
2023-04-25T23:11:42.781Z,95702.63
2023-04-25T23:16:44.592Z,95703.88
2023-04-25T23:21:46.077Z,95704.44
2023-04-25T23:26:47.605Z,95700.22
2023-04-25T23:31:49.086Z,95702.56
2023-04-25T23:36:50.530Z,95699.66
2023-04-25T23:41:51.942Z,95701.66
2023-04-25T23:46:53.468Z,95699.41
2023-04-25T23:51:54.978Z,95702.50
2023-04-25T23:56:56.484Z,95704.50
